MSR408 LIRF-HECA
Flight info
| Callsign | MSR408 |
|---|---|
| Flight time | N/A |
| Altitude | 420 |
| Route | SIPRO DCT VEGAN DCT UPLAD DCT ALIXI DCT RUTOM UM601 TRL UL612 KUMBI L612 BLT A16 MERPI |
| Aircraft | B744/H-VGDW/C |
Departure
| Time | 2026-05-06 13:56 |
|---|---|
| Airport | Rome–Fiumicino Leonardo da Vinci International Airport (LIRF) |
Arrival
| Time | N/A |
|---|---|
| Airport | Cairo International Airport (HECA) |
| Time | Latitude | Longitude | Altitude | Speed | Heading |
|---|---|---|---|---|---|
| 2026-05-06 13:21 | 41.79172 | 12.24509 | 26 ft | 0 kts | 170° |
| 2026-05-06 13:42 | 41.79183 | 12.24506 | 26 ft | 2 kts | 170° |
| 2026-05-06 13:43 | 41.79201 | 12.24502 | 26 ft | 3 kts | 170° |
| 2026-05-06 13:43 | 41.79221 | 12.24497 | 26 ft | 3 kts | 170° |
| 2026-05-06 13:43 | 41.79241 | 12.24493 | 26 ft | 3 kts | 170° |
| 2026-05-06 13:43 | 41.79261 | 12.24488 | 26 ft | 3 kts | 170° |
| 2026-05-06 13:44 | 41.79273 | 12.24485 | 26 ft | 0 kts | 170° |
| 2026-05-06 13:47 | 41.79256 | 12.24493 | 26 ft | 7 kts | 156° |
| 2026-05-06 13:47 | 41.79217 | 12.24569 | 26 ft | 14 kts | 104° |
| 2026-05-06 13:48 | 41.79216 | 12.24644 | 26 ft | 8 kts | 57° |
| 2026-05-06 13:48 | 41.79274 | 12.24645 | 26 ft | 11 kts | 310° |
| 2026-05-06 13:48 | 41.79272 | 12.24520 | 26 ft | 18 kts | 261° |
| 2026-05-06 13:48 | 41.79258 | 12.24326 | 26 ft | 24 kts | 282° |
| 2026-05-06 13:49 | 41.79269 | 12.24108 | 26 ft | 26 kts | 250° |
| 2026-05-06 13:49 | 41.79189 | 12.23963 | 26 ft | 15 kts | 172° |
| 2026-05-06 13:49 | 41.79064 | 12.24008 | 26 ft | 22 kts | 162° |
| 2026-05-06 13:49 | 41.78892 | 12.24086 | 26 ft | 29 kts | 161° |
| 2026-05-06 13:50 | 41.78679 | 12.24182 | 26 ft | 35 kts | 161° |
| 2026-05-06 13:50 | 41.78430 | 12.24294 | 26 ft | 40 kts | 161° |
| 2026-05-06 13:50 | 41.78267 | 12.24279 | 26 ft | 16 kts | 251° |
| 2026-05-06 13:50 | 41.78256 | 12.24227 | 26 ft | 0 kts | 255° |
| 2026-05-06 13:55 | 41.78251 | 12.24200 | 26 ft | 13 kts | 255° |
| 2026-05-06 13:55 | 41.78276 | 12.24017 | 26 ft | 29 kts | 324° |
| 2026-05-06 13:55 | 41.78674 | 12.23847 | 26 ft | 104 kts | 342° |
| 2026-05-06 13:55 | 41.79673 | 12.23429 | 43 ft | 190 kts | 342° |
| 2026-05-06 13:56 | 41.81055 | 12.22848 | 547 ft | 222 kts | 342° |
| 2026-05-06 13:56 | 41.82618 | 12.22020 | 1084 ft | 267 kts | 332° |
| 2026-05-06 13:56 | 41.84033 | 12.20311 | 1514 ft | 270 kts | 307° |
| 2026-05-06 13:56 | 41.84755 | 12.18096 | 1963 ft | 257 kts | 285° |
| 2026-05-06 13:57 | 41.84953 | 12.15730 | 2432 ft | 257 kts | 272° |
| 2026-05-06 13:57 | 41.84696 | 12.13372 | 2849 ft | 259 kts | 251° |
| 2026-05-06 13:57 | 41.83701 | 12.11384 | 3299 ft | 261 kts | 225° |
| 2026-05-06 13:57 | 41.82140 | 12.10192 | 3857 ft | 263 kts | 198° |
| 2026-05-06 13:58 | 41.80288 | 12.10074 | 4933 ft | 273 kts | 174° |
| 2026-05-06 13:58 | 41.78440 | 12.10678 | 6355 ft | 276 kts | 167° |
| 2026-05-06 13:58 | 41.76744 | 12.11368 | 7686 ft | 277 kts | 166° |
| 2026-05-06 13:58 | 41.76412 | 12.11513 | 7914 ft | 279 kts | 166° |
| 2026-05-06 13:59 | 41.75640 | 12.11864 | 8407 ft | 284 kts | 165° |
| 2026-05-06 13:59 | 41.73759 | 12.12774 | 9431 ft | 292 kts | 163° |
| 2026-05-06 13:59 | 41.71874 | 12.13902 | 9886 ft | 302 kts | 155° |
| 2026-05-06 13:59 | 41.70156 | 12.15495 | 10003 ft | 302 kts | 146° |
| 2026-05-06 14:00 | 41.68466 | 12.17351 | 10022 ft | 336 kts | 143° |
| 2026-05-06 14:00 | 41.66573 | 12.19484 | 10023 ft | 372 kts | 142° |
| 2026-05-06 14:00 | 41.64581 | 12.21734 | 10021 ft | 375 kts | 142° |
| 2026-05-06 14:00 | 41.62597 | 12.23978 | 10019 ft | 373 kts | 142° |
| 2026-05-06 14:01 | 41.60620 | 12.26217 | 10016 ft | 374 kts | 142° |
| 2026-05-06 14:01 | 41.58870 | 12.28771 | 10000 ft | 377 kts | 126° |
| 2026-05-06 14:01 | 41.57790 | 12.31962 | 10005 ft | 381 kts | 108° |
| 2026-05-06 14:01 | 41.57262 | 12.35421 | 10007 ft | 382 kts | 99° |
| 2026-05-06 14:02 | 41.56859 | 12.38911 | 10004 ft | 381 kts | 99° |
| 2026-05-06 14:02 | 41.56475 | 12.42403 | 10003 ft | 381 kts | 98° |
| 2026-05-06 14:02 | 41.56100 | 12.45902 | 10003 ft | 381 kts | 98° |
| 2026-05-06 14:02 | 41.55732 | 12.49396 | 10003 ft | 381 kts | 98° |
| 2026-05-06 14:03 | 41.55373 | 12.52895 | 10002 ft | 381 kts | 98° |
| 2026-05-06 14:03 | 41.55024 | 12.56391 | 10007 ft | 381 kts | 98° |
| 2026-05-06 14:03 | 41.54674 | 12.59945 | 10490 ft | 394 kts | 98° |
| 2026-05-06 14:03 | 41.54325 | 12.63546 | 12141 ft | 390 kts | 97° |
| 2026-05-06 14:04 | 41.53985 | 12.67128 | 13656 ft | 395 kts | 97° |
| 2026-05-06 14:04 | 41.53636 | 12.70824 | 14782 ft | 406 kts | 97° |
| 2026-05-06 14:04 | 41.53282 | 12.74582 | 15921 ft | 413 kts | 97° |
| 2026-05-06 14:04 | 41.52944 | 12.78406 | 17008 ft | 420 kts | 97° |
| 2026-05-06 14:05 | 41.52611 | 12.82297 | 18022 ft | 426 kts | 97° |
| 2026-05-06 14:05 | 41.52263 | 12.86242 | 18978 ft | 433 kts | 97° |
| 2026-05-06 14:05 | 41.51906 | 12.90223 | 19919 ft | 438 kts | 97° |
| 2026-05-06 14:05 | 41.51535 | 12.94282 | 20780 ft | 443 kts | 97° |
| 2026-05-06 14:06 | 41.51156 | 12.98379 | 21589 ft | 449 kts | 97° |
| 2026-05-06 14:06 | 41.50770 | 13.02523 | 22359 ft | 454 kts | 97° |
| 2026-05-06 14:06 | 41.50377 | 13.06704 | 23084 ft | 459 kts | 97° |
| 2026-05-06 14:06 | 41.49977 | 13.10937 | 23771 ft | 463 kts | 97° |
| 2026-05-06 14:07 | 41.49572 | 13.15209 | 24421 ft | 468 kts | 97° |
| 2026-05-06 14:07 | 41.49163 | 13.19516 | 25035 ft | 472 kts | 97° |
| 2026-05-06 14:07 | 41.48780 | 13.23864 | 25616 ft | 476 kts | 97° |
| 2026-05-06 14:07 | 41.48384 | 13.28254 | 26166 ft | 480 kts | 97° |
| 2026-05-06 14:08 | 41.47977 | 13.32673 | 26689 ft | 483 kts | 97° |
| 2026-05-06 14:08 | 41.47557 | 13.37122 | 27182 ft | 487 kts | 97° |
| 2026-05-06 14:08 | 41.47133 | 13.41582 | 27650 ft | 490 kts | 97° |
| 2026-05-06 14:08 | 41.46698 | 13.46112 | 28094 ft | 493 kts | 97° |
| 2026-05-06 14:09 | 41.46263 | 13.50647 | 28515 ft | 496 kts | 97° |
| 2026-05-06 14:09 | 41.45832 | 13.55214 | 28913 ft | 499 kts | 97° |
| 2026-05-06 14:09 | 41.45393 | 13.59809 | 29292 ft | 502 kts | 97° |
| 2026-05-06 14:09 | 41.44897 | 13.64412 | 29646 ft | 505 kts | 101° |
| 2026-05-06 14:10 | 41.43788 | 13.68826 | 29959 ft | 505 kts | 116° |
| 2026-05-06 14:10 | 41.42113 | 13.72924 | 30297 ft | 506 kts | 122° |
| 2026-05-06 14:10 | 41.40323 | 13.76957 | 30609 ft | 509 kts | 122° |
| 2026-05-06 14:10 | 41.38505 | 13.80997 | 30915 ft | 511 kts | 122° |
| 2026-05-06 14:11 | 41.36676 | 13.85021 | 31203 ft | 513 kts | 123° |
| 2026-05-06 14:11 | 41.34815 | 13.89088 | 31486 ft | 515 kts | 123° |
| 2026-05-06 14:11 | 41.32947 | 13.93151 | 31753 ft | 517 kts | 123° |
| 2026-05-06 14:11 | 41.31065 | 13.97223 | 32008 ft | 519 kts | 123° |
| 2026-05-06 14:12 | 41.29182 | 14.01283 | 32252 ft | 521 kts | 123° |
| 2026-05-06 14:12 | 41.27272 | 14.05389 | 32513 ft | 522 kts | 123° |
| 2026-05-06 14:12 | 41.25379 | 14.09488 | 32864 ft | 521 kts | 122° |